createdAt,value
2023-05-14T00:00:19.444Z,101819.03
2023-05-14T00:02:47.057Z,101815.59
2023-05-14T00:05:14.685Z,101825.41
2023-05-14T00:07:42.256Z,101820.16
2023-05-14T00:10:10.633Z,101818.44
2023-05-14T00:12:38.266Z,101812.41
2023-05-14T00:15:06.632Z,101821.47
2023-05-14T00:17:34.307Z,101826.91
2023-05-14T00:20:01.977Z,101819.13
2023-05-14T00:22:29.552Z,101816.63
2023-05-14T00:24:57.081Z,101808.81
2023-05-14T00:27:24.635Z,101810.69
2023-05-14T00:29:52.272Z,101817.88
2023-05-14T00:32:19.893Z,101806.63
2023-05-14T00:34:47.496Z,101818.19
2023-05-14T00:37:15.108Z,101812.19
2023-05-14T00:39:42.830Z,101807.91
2023-05-14T00:42:10.516Z,101811.56
2023-05-14T00:44:38.083Z,101807.25
2023-05-14T00:47:06.565Z,101800.25
2023-05-14T00:49:35.408Z,101802.16
2023-05-14T00:52:03.585Z,101802.34
2023-05-14T00:54:31.799Z,101791.13
2023-05-14T00:57:00.028Z,101791.38
2023-05-14T00:59:27.909Z,101789.78
2023-05-14T01:01:55.656Z,101793.44
2023-05-14T01:04:23.667Z,101791.78
2023-05-14T01:07:25.279Z,101795.44
2023-05-14T01:09:55.211Z,101795.63
2023-05-14T01:12:52.494Z,101791.34
2023-05-14T01:15:33.425Z,101793.31
2023-05-14T01:18:13.603Z,101789.09
2023-05-14T01:20:41.279Z,101785.78
2023-05-14T01:23:08.963Z,101789.44
2023-05-14T01:25:37.367Z,101781.63
2023-05-14T01:28:19.386Z,101793.22
2023-05-14T01:31:15.293Z,101789.00
2023-05-14T01:33:44.840Z,101786.53
2023-05-14T01:36:13.398Z,101788.34
2023-05-14T01:38:45.658Z,101784.81
2023-05-14T01:41:14.627Z,101782.28
2023-05-14T01:43:42.488Z,101782.44
2023-05-14T01:46:10.190Z,101781.63
2023-05-14T01:48:37.915Z,101780.91
2023-05-14T01:51:05.802Z,101781.84
2023-05-14T01:53:34.890Z,101780.97
2023-05-14T01:56:02.710Z,101778.38
2023-05-14T01:58:30.336Z,101777.53
2023-05-14T02:00:58.298Z,101777.59
2023-05-14T02:03:25.956Z,101767.94
2023-05-14T02:05:53.579Z,101767.09
2023-05-14T02:08:21.216Z,101764.41
2023-05-14T02:10:49.033Z,101766.13
2023-05-14T02:13:16.896Z,101759.13
2023-05-14T02:15:44.468Z,101768.84
2023-05-14T02:18:12.604Z,101759.19
2023-05-14T02:20:40.802Z,101762.75
2023-05-14T02:23:08.409Z,101767.19
2023-05-14T02:25:36.055Z,101765.44
2023-05-14T02:28:03.618Z,101766.41
2023-05-14T02:30:31.453Z,101763.06
2023-05-14T02:32:59.081Z,101765.78
2023-05-14T02:35:26.699Z,101757.91
2023-05-14T02:37:54.439Z,101751.69
2023-05-14T02:40:22.492Z,101753.50
2023-05-14T02:42:50.267Z,101754.38
2023-05-14T02:45:17.929Z,101749.19
2023-05-14T02:47:46.125Z,101755.44
2023-05-14T02:50:13.763Z,101755.50
2023-05-14T02:52:41.462Z,101752.00
2023-05-14T02:55:10.039Z,101749.38
2023-05-14T02:57:37.640Z,101747.69
2023-05-14T03:00:06.674Z,101753.91
2023-05-14T03:02:35.848Z,101749.53
2023-05-14T03:05:04.190Z,101743.50
2023-05-14T03:07:31.785Z,101748.97
2023-05-14T03:10:00.420Z,101755.25
2023-05-14T03:12:28.098Z,101754.53
2023-05-14T03:14:55.657Z,101742.34
2023-05-14T03:17:23.329Z,101747.72
2023-05-14T03:19:51.312Z,101740.78
2023-05-14T03:22:19.180Z,101743.56
2023-05-14T03:24:48.586Z,101743.69
2023-05-14T03:27:16.276Z,101737.63
2023-05-14T03:29:43.837Z,101739.50
2023-05-14T03:32:11.505Z,101736.06
2023-05-14T03:34:39.167Z,101734.41
2023-05-14T03:37:06.793Z,101737.16
2023-05-14T03:39:34.401Z,101735.47
2023-05-14T03:42:02.271Z,101730.34
2023-05-14T03:44:29.885Z,101727.81
2023-05-14T03:46:57.467Z,101728.78
2023-05-14T03:49:25.748Z,101727.97
2023-05-14T03:51:53.467Z,101735.06
2023-05-14T03:54:21.121Z,101733.38
2023-05-14T03:56:48.692Z,101723.75
2023-05-14T03:59:18.889Z,101728.19
2023-05-14T04:01:46.525Z,101722.94
2023-05-14T04:04:14.243Z,101724.75
2023-05-14T04:06:41.873Z,101726.53
2023-05-14T04:09:10.879Z,101725.69
2023-05-14T04:11:38.770Z,101719.59
2023-05-14T04:14:06.778Z,101719.63
2023-05-14T04:16:34.423Z,101725.75
2023-05-14T04:19:06.428Z,101718.75
2023-05-14T04:21:34.092Z,101726.69
2023-05-14T04:24:01.778Z,101724.06
2023-05-14T04:26:29.339Z,101726.72
2023-05-14T04:28:56.962Z,101726.72
2023-05-14T04:31:24.747Z,101739.91
2023-05-14T04:33:52.313Z,101737.31
2023-05-14T04:36:19.846Z,101729.41
2023-05-14T04:38:47.395Z,101732.91
2023-05-14T04:41:15.027Z,101732.03
2023-05-14T04:43:42.538Z,101736.34
2023-05-14T04:46:10.091Z,101733.38
2023-05-14T04:48:37.745Z,101738.00
2023-05-14T04:51:07.097Z,101725.63
2023-05-14T04:53:34.838Z,101739.66
2023-05-14T04:56:02.714Z,101734.38
2023-05-14T04:58:34.621Z,101737.03
2023-05-14T05:01:05.778Z,101738.81
2023-05-14T05:03:33.507Z,101739.69
2023-05-14T05:06:01.277Z,101730.88
2023-05-14T05:08:29.301Z,101732.56
2023-05-14T05:10:56.937Z,101738.69
2023-05-14T05:13:24.575Z,101742.16
2023-05-14T05:15:52.271Z,101743.00
2023-05-14T05:18:19.943Z,101742.16
2023-05-14T05:20:47.800Z,101742.16
2023-05-14T05:23:15.465Z,101736.91
2023-05-14T05:25:43.172Z,101749.25
2023-05-14T05:28:10.711Z,101741.31
2023-05-14T05:30:38.347Z,101745.66
2023-05-14T05:33:06.081Z,101748.25
2023-05-14T05:35:33.738Z,101746.47
2023-05-14T05:38:02.000Z,101742.88
2023-05-14T05:40:32.127Z,101748.03
2023-05-14T05:42:59.741Z,101740.94
2023-05-14T05:45:27.343Z,101742.53
2023-05-14T05:47:54.898Z,101740.63
2023-05-14T05:50:22.848Z,101741.31
2023-05-14T05:52:50.834Z,101739.38
2023-05-14T05:55:20.612Z,101733.06
2023-05-14T05:57:48.136Z,101736.44
2023-05-14T06:00:17.011Z,101737.19
2023-05-14T06:02:45.052Z,101731.75
2023-05-14T06:05:13.159Z,101742.16
2023-05-14T06:07:40.934Z,101744.72
2023-05-14T06:10:08.811Z,101749.97
2023-05-14T06:12:36.599Z,101741.94
2023-05-14T06:15:04.709Z,101751.34
2023-05-14T06:17:32.303Z,101748.38
2023-05-14T06:19:59.953Z,101751.59
2023-05-14T06:22:27.526Z,101752.19
2023-05-14T06:24:55.154Z,101748.34
2023-05-14T06:27:22.760Z,101757.69
2023-05-14T06:29:50.288Z,101762.69
2023-05-14T06:32:18.067Z,101759.56
2023-05-14T06:34:45.717Z,101757.38
2023-05-14T06:37:13.332Z,101752.53
2023-05-14T06:39:46.527Z,101753.78
2023-05-14T06:42:14.146Z,101758.50
2023-05-14T06:44:43.772Z,101761.41
2023-05-14T06:47:11.700Z,101757.22
2023-05-14T06:49:41.098Z,101761.94
2023-05-14T06:52:08.934Z,101756.03
2023-05-14T06:54:36.840Z,101757.22
2023-05-14T06:57:12.044Z,101747.72
2023-05-14T06:59:39.725Z,101741.06
2023-05-14T07:02:07.396Z,101751.94
2023-05-14T07:04:35.134Z,101744.91
2023-05-14T07:07:02.955Z,101743.56
2023-05-14T07:09:30.550Z,101744.09
2023-05-14T07:11:58.225Z,101744.72
2023-05-14T07:14:25.851Z,101742.47
2023-05-14T07:16:53.687Z,101739.50
2023-05-14T07:19:22.359Z,101739.13
2023-05-14T07:21:49.924Z,101745.53
2023-05-14T07:24:17.497Z,101744.13
2023-05-14T07:26:45.303Z,101744.66
2023-05-14T07:29:12.876Z,101747.69
2023-05-14T07:31:40.668Z,101745.50
2023-05-14T07:34:08.810Z,101739.84
2023-05-14T07:36:36.663Z,101740.22
2023-05-14T07:39:04.356Z,101741.59
2023-05-14T07:41:31.940Z,101742.25
2023-05-14T07:43:59.490Z,101746.31
2023-05-14T07:46:27.055Z,101734.66
2023-05-14T07:48:54.731Z,101738.84
2023-05-14T07:51:23.044Z,101742.81
2023-05-14T07:53:50.766Z,101735.22
2023-05-14T07:56:18.321Z,101746.47
2023-05-14T07:58:46.156Z,101737.22
2023-05-14T08:01:13.980Z,101740.34
2023-05-14T08:03:41.694Z,101733.72
2023-05-14T08:06:09.452Z,101731.69
2023-05-14T08:08:37.008Z,101737.28
2023-05-14T08:11:04.806Z,101749.22
2023-05-14T08:13:32.530Z,101738.25
2023-05-14T08:16:00.345Z,101739.59
2023-05-14T08:18:27.872Z,101732.00
2023-05-14T08:20:56.097Z,101735.06
2023-05-14T08:23:23.770Z,101736.19
2023-05-14T08:25:51.409Z,101735.59
2023-05-14T08:28:19.066Z,101734.94
2023-05-14T08:30:46.678Z,101742.50
2023-05-14T08:33:14.453Z,101733.38
2023-05-14T08:35:42.059Z,101739.31
2023-05-14T08:38:09.667Z,101737.09
2023-05-14T08:40:37.356Z,101738.44
2023-05-14T08:43:09.996Z,101730.84
2023-05-14T08:45:39.530Z,101730.41
2023-05-14T08:48:11.678Z,101724.66
2023-05-14T08:50:40.031Z,101726.28
2023-05-14T08:53:07.738Z,101725.44
2023-05-14T08:55:37.301Z,101729.56
2023-05-14T08:58:04.907Z,101729.25
2023-05-14T09:00:33.025Z,101727.97
2023-05-14T09:03:01.543Z,101724.94
2023-05-14T09:05:29.251Z,101717.69
2023-05-14T09:07:56.979Z,101713.81
2023-05-14T09:10:24.812Z,101711.47
2023-05-14T09:12:52.734Z,101714.66
2023-05-14T09:15:20.339Z,101712.19
2023-05-14T09:17:48.695Z,101718.47
2023-05-14T09:20:16.934Z,101709.59
2023-05-14T09:22:44.583Z,101707.47
2023-05-14T09:25:13.016Z,101716.03
2023-05-14T09:27:40.732Z,101703.16
2023-05-14T09:30:13.823Z,101703.66
2023-05-14T09:32:44.463Z,101701.75
2023-05-14T09:35:17.482Z,101707.00
2023-05-14T09:37:49.862Z,101693.63
2023-05-14T09:40:23.831Z,101696.03
2023-05-14T09:42:51.943Z,101698.34
2023-05-14T09:45:19.699Z,101698.75
2023-05-14T09:47:47.556Z,101697.72
2023-05-14T09:50:15.321Z,101699.59
2023-05-14T09:52:42.917Z,101683.66
2023-05-14T09:55:10.568Z,101697.56
2023-05-14T09:57:38.458Z,101690.97
2023-05-14T10:00:08.645Z,101694.06
2023-05-14T10:02:38.533Z,101689.66
2023-05-14T10:05:07.890Z,101697.13
2023-05-14T10:07:42.971Z,101689.94
2023-05-14T10:10:16.885Z,101685.53
2023-05-14T10:12:52.837Z,101687.97
2023-05-14T10:15:29.051Z,101680.38
2023-05-14T10:18:06.807Z,101675.31
2023-05-14T10:20:36.727Z,101675.78
2023-05-14T10:23:07.447Z,101670.72
2023-05-14T10:25:36.930Z,101678.84
2023-05-14T10:28:06.481Z,101670.19
2023-05-14T10:30:34.146Z,101666.19
2023-05-14T10:33:18.838Z,101660.19
2023-05-14T10:36:03.954Z,101664.00
2023-05-14T10:38:38.722Z,101657.69
2023-05-14T10:41:12.721Z,101651.88
2023-05-14T10:43:42.162Z,101652.56
2023-05-14T10:46:13.420Z,101651.41
2023-05-14T10:48:43.144Z,101652.28
2023-05-14T10:51:12.247Z,101648.03
2023-05-14T10:53:44.157Z,101637.66
2023-05-14T10:56:14.596Z,101644.75
2023-05-14T10:58:50.473Z,101647.31
2023-05-14T11:01:18.090Z,101639.06
2023-05-14T11:03:47.145Z,101634.19
2023-05-14T11:06:16.521Z,101636.09
2023-05-14T11:08:46.371Z,101629.94
2023-05-14T11:11:14.436Z,101623.72
2023-05-14T11:13:42.965Z,101625.97
2023-05-14T11:16:22.426Z,101622.31
2023-05-14T11:19:03.522Z,101625.13
2023-05-14T11:21:32.783Z,101618.47
2023-05-14T11:24:01.214Z,101610.41
2023-05-14T11:26:28.897Z,101609.22
2023-05-14T11:28:56.774Z,101616.44
2023-05-14T11:31:25.687Z,101611.06
2023-05-14T11:33:53.705Z,101608.34
2023-05-14T11:36:22.111Z,101599.25
2023-05-14T11:38:51.486Z,101601.38
2023-05-14T11:41:21.331Z,101599.50
2023-05-14T11:43:49.185Z,101590.53
2023-05-14T11:46:18.741Z,101595.19
2023-05-14T11:48:46.494Z,101582.25
2023-05-14T11:51:15.365Z,101583.88
2023-05-14T11:53:42.860Z,101589.34
2023-05-14T11:56:11.173Z,101575.78
2023-05-14T11:58:38.710Z,101584.22
2023-05-14T12:01:06.399Z,101586.84
2023-05-14T12:03:35.479Z,101574.06
2023-05-14T12:06:08.039Z,101572.03
2023-05-14T12:08:37.679Z,101580.91
2023-05-14T12:11:05.384Z,101571.69
2023-05-14T12:13:33.362Z,101571.03
2023-05-14T12:16:02.643Z,101568.44
2023-05-14T12:18:32.515Z,101566.19
2023-05-14T12:21:05.948Z,101567.75
2023-05-14T12:23:33.978Z,101563.31
2023-05-14T12:26:07.266Z,101557.88
2023-05-14T12:28:38.813Z,101560.19
2023-05-14T12:31:06.680Z,101552.66
2023-05-14T12:33:34.332Z,101554.63
2023-05-14T12:36:13.982Z,101549.59
2023-05-14T12:38:50.494Z,101556.84
2023-05-14T12:41:18.323Z,101551.94
2023-05-14T12:43:50.161Z,101551.84
2023-05-14T12:46:18.159Z,101546.94
2023-05-14T12:48:46.381Z,101552.78
2023-05-14T12:51:14.478Z,101551.75
2023-05-14T12:53:42.310Z,101542.50
2023-05-14T12:56:10.420Z,101535.94
2023-05-14T12:58:38.069Z,101532.63
2023-05-14T13:01:06.682Z,101532.00
2023-05-14T13:03:34.672Z,101536.19
2023-05-14T13:06:02.240Z,101532.25
2023-05-14T13:08:29.908Z,101530.03
2023-05-14T13:10:57.522Z,101531.97
2023-05-14T13:13:25.160Z,101530.97
2023-05-14T13:15:53.650Z,101525.84
2023-05-14T13:18:21.453Z,101529.94
2023-05-14T13:20:49.112Z,101528.81
2023-05-14T13:23:16.639Z,101519.72
2023-05-14T13:25:44.257Z,101524.22
2023-05-14T13:28:12.118Z,101519.72
2023-05-14T13:30:41.050Z,101522.28
2023-05-14T13:33:08.948Z,101517.78
2023-05-14T13:35:36.748Z,101513.25
2023-05-14T13:38:04.307Z,101523.88
2023-05-14T13:40:31.841Z,101514.28
2023-05-14T13:42:59.357Z,101506.50
2023-05-14T13:45:27.001Z,101507.03
2023-05-14T13:47:56.625Z,101506.47
2023-05-14T13:50:24.525Z,101507.69
2023-05-14T13:52:52.162Z,101504.06
2023-05-14T13:55:19.714Z,101507.59
2023-05-14T13:57:47.244Z,101505.88
2023-05-14T14:00:15.773Z,101495.13
2023-05-14T14:02:43.367Z,101498.31
2023-05-14T14:05:10.982Z,101497.34
2023-05-14T14:07:39.643Z,101491.22
2023-05-14T14:10:08.748Z,101495.63
2023-05-14T14:12:36.754Z,101490.09
2023-05-14T14:15:06.248Z,101477.69
2023-05-14T14:17:34.788Z,101480.56
2023-05-14T14:20:03.459Z,101474.16
2023-05-14T14:22:31.069Z,101482.56
2023-05-14T14:24:58.829Z,101479.78
2023-05-14T14:27:26.753Z,101473.94
2023-05-14T14:29:54.469Z,101473.81
2023-05-14T14:32:22.070Z,101477.41
2023-05-14T14:34:49.696Z,101480.09
2023-05-14T14:37:17.274Z,101471.09
2023-05-14T14:39:44.832Z,101470.88
2023-05-14T14:42:12.641Z,101472.34
2023-05-14T14:44:40.154Z,101478.28
2023-05-14T14:47:07.719Z,101471.50
2023-05-14T14:49:37.926Z,101483.59
2023-05-14T14:52:05.601Z,101480.06
2023-05-14T14:54:33.178Z,101489.69
2023-05-14T14:57:00.852Z,101487.63
2023-05-14T14:59:28.488Z,101483.75
2023-05-14T15:01:56.125Z,101472.56
2023-05-14T15:04:23.764Z,101471.78
2023-05-14T15:06:51.342Z,101476.31
2023-05-14T15:09:19.028Z,101475.31
2023-05-14T15:11:47.161Z,101477.59
2023-05-14T15:14:14.669Z,101470.16
2023-05-14T15:16:42.469Z,101465.22
2023-05-14T15:19:10.206Z,101463.97
2023-05-14T15:21:38.047Z,101459.22
2023-05-14T15:24:06.230Z,101458.28
2023-05-14T15:26:34.295Z,101453.78
2023-05-14T15:29:01.951Z,101456.34
2023-05-14T15:31:30.001Z,101445.41
2023-05-14T15:33:57.695Z,101440.81
2023-05-14T15:36:25.457Z,101444.03
2023-05-14T15:38:53.015Z,101436.31
2023-05-14T15:41:21.163Z,101435.81
2023-05-14T15:43:48.740Z,101443.72
2023-05-14T15:46:16.324Z,101440.28
2023-05-14T15:48:43.949Z,101440.50
2023-05-14T15:51:11.654Z,101445.22
2023-05-14T15:53:39.245Z,101442.22
2023-05-14T15:56:07.764Z,101444.56
2023-05-14T15:58:35.457Z,101438.22
2023-05-14T16:01:03.145Z,101440.88
2023-05-14T16:03:30.897Z,101434.47
2023-05-14T16:05:58.692Z,101436.81
2023-05-14T16:08:26.241Z,101441.19
2023-05-14T16:10:53.875Z,101442.75
2023-05-14T16:13:21.417Z,101440.75
2023-05-14T16:15:49.055Z,101435.06
2023-05-14T16:18:16.696Z,101429.56
2023-05-14T16:20:44.503Z,101433.75
2023-05-14T16:23:12.095Z,101436.06
2023-05-14T16:25:39.679Z,101447.16
2023-05-14T16:28:07.988Z,101443.88
2023-05-14T16:30:35.550Z,101442.56
2023-05-14T16:33:03.234Z,101443.81
2023-05-14T16:35:30.883Z,101441.53
2023-05-14T16:37:58.396Z,101435.50
2023-05-14T16:40:26.039Z,101442.97
2023-05-14T16:42:56.397Z,101443.25
2023-05-14T16:45:24.258Z,101438.28
2023-05-14T16:47:52.074Z,101437.69
2023-05-14T16:50:19.899Z,101437.78
2023-05-14T16:52:47.464Z,101435.31
2023-05-14T16:55:15.499Z,101438.00
2023-05-14T16:57:43.747Z,101434.34
2023-05-14T17:00:23.182Z,101430.72
2023-05-14T17:02:56.803Z,101436.84
2023-05-14T17:05:24.599Z,101435.88
2023-05-14T17:07:52.314Z,101434.94
2023-05-14T17:10:20.056Z,101433.97
2023-05-14T17:12:47.597Z,101425.94
2023-05-14T17:15:15.315Z,101432.25
2023-05-14T17:17:43.102Z,101435.88
2023-05-14T17:20:11.853Z,101424.41
2023-05-14T17:22:39.481Z,101434.56
2023-05-14T17:25:08.760Z,101434.72
2023-05-14T17:27:36.398Z,101431.50
2023-05-14T17:30:04.601Z,101440.72
2023-05-14T17:32:32.326Z,101438.41
2023-05-14T17:34:59.977Z,101441.34
2023-05-14T17:37:27.629Z,101432.72
2023-05-14T17:39:55.251Z,101442.00
2023-05-14T17:42:22.774Z,101441.41
2023-05-14T17:44:50.375Z,101434.78
2023-05-14T17:47:20.546Z,101446.69
2023-05-14T17:49:48.276Z,101432.94
2023-05-14T17:52:15.815Z,101435.97
2023-05-14T17:54:43.399Z,101440.59
2023-05-14T17:57:11.187Z,101445.28
2023-05-14T17:59:38.786Z,101445.44
2023-05-14T18:02:09.922Z,101443.91
2023-05-14T18:04:37.628Z,101445.13
2023-05-14T18:07:09.178Z,101444.53
2023-05-14T18:09:37.462Z,101444.81
2023-05-14T18:12:05.539Z,101445.00
2023-05-14T18:14:33.199Z,101444.41
2023-05-14T18:19:42.551Z,101448.91
2023-05-14T18:22:11.437Z,101452.69
2023-05-14T18:24:39.008Z,101454.56
2023-05-14T18:27:06.695Z,101457.50
2023-05-14T18:29:34.223Z,101455.25
2023-05-14T18:32:01.974Z,101463.50
2023-05-14T18:34:29.611Z,101453.16
2023-05-14T18:36:57.898Z,101463.28
2023-05-14T18:39:29.325Z,101454.75
2023-05-14T18:42:00.895Z,101460.50
2023-05-14T18:44:28.490Z,101462.63
2023-05-14T18:46:56.177Z,101467.44
2023-05-14T18:49:23.718Z,101463.44
2023-05-14T18:51:53.586Z,101462.88
2023-05-14T18:54:21.264Z,101468.63
2023-05-14T18:56:48.845Z,101463.59
2023-05-14T18:59:16.417Z,101461.16
2023-05-14T19:01:44.021Z,101463.19
2023-05-14T19:04:13.733Z,101470.72
2023-05-14T19:06:41.515Z,101463.97
2023-05-14T19:09:10.711Z,101462.56
2023-05-14T19:11:38.469Z,101469.91
2023-05-14T19:14:06.282Z,101472.81
2023-05-14T19:16:33.963Z,101468.63
2023-05-14T19:19:01.660Z,101476.91
2023-05-14T19:21:29.308Z,101472.84
2023-05-14T19:23:56.891Z,101474.00
2023-05-14T19:26:24.617Z,101470.69
2023-05-14T19:28:57.889Z,101479.88
2023-05-14T19:31:27.055Z,101478.47
2023-05-14T19:33:55.346Z,101477.09
2023-05-14T19:36:22.894Z,101484.50
2023-05-14T19:38:50.627Z,101486.66
2023-05-14T19:41:18.303Z,101477.31
2023-05-14T19:43:45.944Z,101484.78
2023-05-14T19:46:13.651Z,101479.88
2023-05-14T19:48:43.717Z,101493.44
2023-05-14T19:51:11.572Z,101492.00
2023-05-14T19:53:39.181Z,101492.34
2023-05-14T19:56:06.976Z,101493.59
2023-05-14T19:58:34.662Z,101487.72
2023-05-14T20:01:02.265Z,101491.72
2023-05-14T20:03:30.278Z,101491.19
2023-05-14T20:05:58.024Z,101493.38
2023-05-14T20:08:25.654Z,101490.13
2023-05-14T20:10:53.268Z,101493.94
2023-05-14T20:13:23.070Z,101495.19
2023-05-14T20:15:51.604Z,101497.25
2023-05-14T20:18:19.274Z,101498.41
2023-05-14T20:20:47.020Z,101499.53
2023-05-14T20:23:14.529Z,101499.72
2023-05-14T20:25:43.063Z,101498.19
2023-05-14T20:28:10.935Z,101495.78
2023-05-14T20:30:38.584Z,101503.91
2023-05-14T20:33:06.722Z,101505.84
2023-05-14T20:35:34.448Z,101506.94
2023-05-14T20:38:03.709Z,101507.03
2023-05-14T20:40:32.784Z,101507.16
2023-05-14T20:43:01.883Z,101500.31
2023-05-14T20:45:29.657Z,101506.75
2023-05-14T20:47:57.297Z,101507.84
2023-05-14T20:50:27.121Z,101512.53
2023-05-14T20:52:55.650Z,101510.91
2023-05-14T20:55:23.609Z,101512.00
2023-05-14T20:57:51.435Z,101500.81
2023-05-14T21:00:19.645Z,101509.00
2023-05-14T21:02:48.995Z,101501.28
2023-05-14T21:05:17.469Z,101499.69
2023-05-14T21:07:45.101Z,101501.72
2023-05-14T21:10:12.688Z,101494.84
2023-05-14T21:12:41.237Z,101492.38
2023-05-14T21:15:10.640Z,101481.00
2023-05-14T21:17:38.190Z,101493.56
2023-05-14T21:20:06.883Z,101493.78
2023-05-14T21:22:34.474Z,101491.34
2023-05-14T21:25:02.030Z,101502.19
2023-05-14T21:27:29.848Z,101494.47
2023-05-14T21:29:57.402Z,101498.16
2023-05-14T21:32:25.543Z,101498.31
2023-05-14T21:34:53.255Z,101498.47
2023-05-14T21:37:22.390Z,101492.50
2023-05-14T21:39:49.992Z,101490.06
2023-05-14T21:42:18.901Z,101491.19
2023-05-14T21:44:46.990Z,101490.47
2023-05-14T21:47:16.186Z,101486.25
2023-05-14T21:49:43.804Z,101498.75
2023-05-14T21:52:11.700Z,101497.13
2023-05-14T21:54:39.249Z,101488.41
2023-05-14T21:57:07.083Z,101493.81
2023-05-14T21:59:36.527Z,101484.25
2023-05-14T22:02:07.205Z,101482.69
2023-05-14T22:04:35.633Z,101476.72
2023-05-14T22:07:03.738Z,101475.94
2023-05-14T22:09:31.489Z,101476.91
2023-05-14T22:11:59.523Z,101476.09
2023-05-14T22:14:27.336Z,101475.25
2023-05-14T22:16:55.089Z,101472.78
2023-05-14T22:19:22.801Z,101472.00
2023-05-14T22:21:50.403Z,101472.19
2023-05-14T22:24:18.119Z,101474.06
2023-05-14T22:26:45.775Z,101471.59
2023-05-14T22:29:13.301Z,101465.50
2023-05-14T22:31:40.938Z,101467.41
2023-05-14T22:34:08.534Z,101466.66
2023-05-14T22:36:36.413Z,101459.75
2023-05-14T22:39:04.041Z,101466.81
2023-05-14T22:41:31.793Z,101460.72
2023-05-14T22:43:59.409Z,101465.16
2023-05-14T22:46:27.075Z,101458.22
2023-05-14T22:48:55.427Z,101452.13
2023-05-14T22:51:23.006Z,101448.72
2023-05-14T22:53:50.642Z,101450.53
2023-05-14T22:56:19.602Z,101439.16
2023-05-14T22:58:47.736Z,101443.63
2023-05-14T23:01:15.340Z,101442.75
2023-05-14T23:03:42.938Z,101442.75
2023-05-14T23:06:13.639Z,101441.84
2023-05-14T23:08:41.208Z,101447.19
2023-05-14T23:11:08.921Z,101450.81
2023-05-14T23:13:36.417Z,101448.31
2023-05-14T23:16:04.932Z,101442.25
2023-05-14T23:18:32.851Z,101442.38
2023-05-14T23:21:00.559Z,101443.28
2023-05-14T23:23:28.175Z,101442.47
2023-05-14T23:25:56.166Z,101437.22
2023-05-14T23:28:23.699Z,101435.50
2023-05-14T23:30:51.195Z,101421.50
2023-05-14T23:33:19.008Z,101418.91
2023-05-14T23:35:46.739Z,101416.34
2023-05-14T23:38:14.533Z,101412.81
2023-05-14T23:40:42.337Z,101418.19
2023-05-14T23:43:09.922Z,101420.00
2023-05-14T23:45:37.654Z,101423.53
2023-05-14T23:48:05.881Z,101410.34
2023-05-14T23:50:33.459Z,101410.41
2023-05-14T23:53:01.082Z,101404.22
2023-05-14T23:55:28.681Z,101409.50
2023-05-14T23:57:56.800Z,101405.19
